AUA74 HECA-LOWW
Flight info
| Callsign | AUA74 |
|---|---|
| Flight time | 3h 20m |
| Altitude | 38000 |
| Route | MENKU L617 NOZ L551 ANTAR UN133 PEREN UL863 EVIVI L863 OKANA DCT PARAK DCT BALUX DCT TORNO DCT NATEX NATEX2W |
| Aircraft | A320/M-SDE3FGHIRWY/LB1 |
Departure
| Time | 2026-04-24 00:40 |
|---|---|
| Airport | Cairo International Airport (HECA) |
Arrival
| Time | 2026-04-24 04:00 |
|---|---|
| Airport | Vienna International Airport (LOWW) |
| Time | Latitude | Longitude | Altitude | Speed | Heading |
|---|---|---|---|---|---|
| 2026-04-23 23:47 | 30.10985 | 31.39823 | 335 ft | 0 kts | 76° |
| 2026-04-24 00:31 | 30.10983 | 31.39812 | 336 ft | 4 kts | 76° |
| 2026-04-24 00:32 | 30.10976 | 31.39782 | 330 ft | 4 kts | 75° |
| 2026-04-24 00:32 | 30.10970 | 31.39757 | 331 ft | 2 kts | 64° |
| 2026-04-24 00:32 | 30.10958 | 31.39731 | 331 ft | 4 kts | 63° |
| 2026-04-24 00:32 | 30.10954 | 31.39709 | 330 ft | 1 kts | 121° |
| 2026-04-24 00:35 | 30.10931 | 31.39734 | 333 ft | 10 kts | 152° |
| 2026-04-24 00:35 | 30.10854 | 31.39760 | 339 ft | 10 kts | 164° |
| 2026-04-24 00:36 | 30.10795 | 31.39779 | 347 ft | 11 kts | 165° |
| 2026-04-24 00:36 | 30.10693 | 31.39810 | 354 ft | 16 kts | 165° |
| 2026-04-24 00:36 | 30.10600 | 31.39836 | 356 ft | 12 kts | 166° |
| 2026-04-24 00:36 | 30.10493 | 31.39869 | 363 ft | 18 kts | 166° |
| 2026-04-24 00:37 | 30.10395 | 31.39836 | 369 ft | 14 kts | 226° |
| 2026-04-24 00:37 | 30.10333 | 31.39756 | 372 ft | 14 kts | 227° |
| 2026-04-24 00:37 | 30.10254 | 31.39655 | 366 ft | 18 kts | 230° |
| 2026-04-24 00:37 | 30.10170 | 31.39569 | 370 ft | 14 kts | 190° |
| 2026-04-24 00:38 | 30.10111 | 31.39611 | 372 ft | 7 kts | 141° |
| 2026-04-24 00:38 | 30.10086 | 31.39635 | 375 ft | 7 kts | 141° |
| 2026-04-24 00:38 | 30.10023 | 31.39702 | 381 ft | 16 kts | 126° |
| 2026-04-24 00:38 | 30.10005 | 31.39811 | 387 ft | 13 kts | 87° |
| 2026-04-24 00:39 | 30.10031 | 31.39915 | 388 ft | 14 kts | 52° |
| 2026-04-24 00:39 | 30.10124 | 31.40040 | 387 ft | 35 kts | 49° |
| 2026-04-24 00:39 | 30.10450 | 31.40471 | 389 ft | 104 kts | 49° |
| 2026-04-24 00:39 | 30.11059 | 31.41276 | 394 ft | 158 kts | 49° |
| 2026-04-24 00:40 | 30.11787 | 31.42233 | 1019 ft | 158 kts | 49° |
| 2026-04-24 00:40 | 30.12509 | 31.43181 | 1770 ft | 157 kts | 50° |
| 2026-04-24 00:40 | 30.13243 | 31.44151 | 2325 ft | 169 kts | 47° |
| 2026-04-24 00:40 | 30.14073 | 31.45238 | 2667 ft | 192 kts | 47° |
| 2026-04-24 00:41 | 30.15020 | 31.46477 | 3038 ft | 217 kts | 46° |
| 2026-04-24 00:41 | 30.16075 | 31.47857 | 3501 ft | 242 kts | 46° |
| 2026-04-24 00:41 | 30.17239 | 31.49380 | 4128 ft | 259 kts | 46° |
| 2026-04-24 00:41 | 30.18442 | 31.50958 | 5053 ft | 265 kts | 46° |
| 2026-04-24 00:42 | 30.19729 | 31.52504 | 5944 ft | 270 kts | 36° |
| 2026-04-24 00:42 | 30.21414 | 31.53447 | 6770 ft | 274 kts | 11° |
| 2026-04-24 00:42 | 30.23323 | 31.53459 | 7602 ft | 278 kts | 345° |
| 2026-04-24 00:42 | 30.25056 | 31.52484 | 8437 ft | 281 kts | 319° |
| 2026-04-24 00:43 | 30.26373 | 31.50795 | 9312 ft | 285 kts | 308° |
| 2026-04-24 00:43 | 30.27606 | 31.49018 | 10145 ft | 291 kts | 307° |
| 2026-04-24 00:43 | 30.28920 | 31.47112 | 10487 ft | 315 kts | 307° |
| 2026-04-24 00:43 | 30.30316 | 31.45088 | 11053 ft | 327 kts | 307° |
| 2026-04-24 00:44 | 30.31748 | 31.43019 | 11843 ft | 332 kts | 307° |
| 2026-04-24 00:44 | 30.33207 | 31.40920 | 12693 ft | 335 kts | 307° |
| 2026-04-24 00:44 | 30.34677 | 31.38811 | 13538 ft | 338 kts | 307° |
| 2026-04-24 00:44 | 30.36166 | 31.36674 | 14298 ft | 341 kts | 307° |
| 2026-04-24 00:45 | 30.37662 | 31.34527 | 15039 ft | 344 kts | 307° |
| 2026-04-24 00:45 | 30.39168 | 31.32363 | 15775 ft | 347 kts | 307° |
| 2026-04-24 00:45 | 30.40691 | 31.30172 | 16513 ft | 350 kts | 307° |
| 2026-04-24 00:45 | 30.42219 | 31.27966 | 17234 ft | 353 kts | 307° |
| 2026-04-24 00:46 | 30.43764 | 31.25735 | 17962 ft | 356 kts | 307° |
| 2026-04-24 00:46 | 30.45317 | 31.23489 | 18619 ft | 359 kts | 306° |
| 2026-04-24 00:46 | 30.46883 | 31.21221 | 19237 ft | 362 kts | 306° |
| 2026-04-24 00:46 | 30.48461 | 31.18938 | 19862 ft | 364 kts | 306° |
| 2026-04-24 00:47 | 30.50053 | 31.16637 | 20494 ft | 367 kts | 306° |
| 2026-04-24 00:47 | 30.51658 | 31.14320 | 21126 ft | 370 kts | 306° |
| 2026-04-24 00:47 | 30.53253 | 31.12011 | 21747 ft | 373 kts | 305° |
| 2026-04-24 00:47 | 30.54880 | 31.09654 | 22377 ft | 376 kts | 305° |
| 2026-04-24 00:48 | 30.56516 | 31.07282 | 23011 ft | 379 kts | 305° |
| 2026-04-24 00:48 | 30.58168 | 31.04887 | 23613 ft | 382 kts | 305° |
| 2026-04-24 00:48 | 30.59833 | 31.02475 | 24129 ft | 384 kts | 305° |
| 2026-04-24 00:48 | 30.61509 | 31.00043 | 24646 ft | 386 kts | 304° |
| 2026-04-24 00:49 | 30.63192 | 30.97600 | 25160 ft | 389 kts | 304° |
| 2026-04-24 00:49 | 30.64885 | 30.95141 | 25655 ft | 391 kts | 304° |
| 2026-04-24 00:49 | 30.66582 | 30.92670 | 26139 ft | 393 kts | 304° |
| 2026-04-24 00:49 | 30.68289 | 30.90185 | 26626 ft | 395 kts | 304° |
| 2026-04-24 00:50 | 30.70008 | 30.87683 | 27080 ft | 397 kts | 304° |
| 2026-04-24 00:50 | 30.71741 | 30.85162 | 27543 ft | 399 kts | 304° |
| 2026-04-24 00:50 | 30.73475 | 30.82638 | 28002 ft | 401 kts | 304° |
| 2026-04-24 00:50 | 30.75213 | 30.80097 | 28442 ft | 403 kts | 304° |
| 2026-04-24 00:51 | 30.76962 | 30.77538 | 28882 ft | 405 kts | 304° |
| 2026-04-24 00:51 | 30.78723 | 30.74964 | 29310 ft | 407 kts | 304° |
| 2026-04-24 00:51 | 30.80490 | 30.72383 | 29721 ft | 409 kts | 304° |
| 2026-04-24 00:51 | 30.82265 | 30.69788 | 30114 ft | 411 kts | 304° |
| 2026-04-24 00:52 | 30.84046 | 30.67180 | 30452 ft | 412 kts | 304° |
| 2026-04-24 00:52 | 30.85829 | 30.64566 | 30814 ft | 413 kts | 303° |
| 2026-04-24 00:52 | 30.87622 | 30.61936 | 31150 ft | 414 kts | 303° |
| 2026-04-24 00:52 | 30.89411 | 30.59306 | 31486 ft | 415 kts | 303° |
| 2026-04-24 00:53 | 30.91198 | 30.56683 | 31926 ft | 413 kts | 303° |
| 2026-04-24 00:53 | 30.92977 | 30.54072 | 32415 ft | 410 kts | 303° |
| 2026-04-24 00:53 | 30.94738 | 30.51488 | 32895 ft | 407 kts | 303° |
| 2026-04-24 00:53 | 30.96495 | 30.48912 | 33365 ft | 404 kts | 303° |
| 2026-04-24 00:54 | 30.98239 | 30.46353 | 33853 ft | 401 kts | 303° |
| 2026-04-24 00:54 | 30.99970 | 30.43810 | 34264 ft | 399 kts | 303° |
| 2026-04-24 00:54 | 31.01690 | 30.41275 | 34627 ft | 398 kts | 303° |
| 2026-04-24 00:54 | 31.03380 | 30.38778 | 34974 ft | 397 kts | 303° |
| 2026-04-24 00:55 | 31.05111 | 30.36217 | 35313 ft | 397 kts | 303° |
| 2026-04-24 00:55 | 31.06794 | 30.33728 | 35628 ft | 396 kts | 302° |
| 2026-04-24 00:55 | 31.08412 | 30.31147 | 35933 ft | 391 kts | 296° |
| 2026-04-24 00:55 | 31.09642 | 30.28342 | 36230 ft | 386 kts | 288° |
| 2026-04-24 00:56 | 31.10498 | 30.25400 | 36521 ft | 383 kts | 284° |
| 2026-04-24 00:56 | 31.11302 | 30.22437 | 36810 ft | 383 kts | 284° |
| 2026-04-24 00:56 | 31.12111 | 30.19478 | 37101 ft | 382 kts | 284° |
| 2026-04-24 00:56 | 31.12922 | 30.16528 | 37380 ft | 381 kts | 284° |
| 2026-04-24 00:57 | 31.13731 | 30.13582 | 37644 ft | 381 kts | 284° |
| 2026-04-24 00:57 | 31.14535 | 30.10641 | 37869 ft | 381 kts | 284° |
| 2026-04-24 00:58 | 31.16980 | 30.01641 | 37924 ft | 394 kts | 284° |
| 2026-04-24 00:58 | 31.19518 | 29.95894 | 37920 ft | 404 kts | 304° |
| 2026-04-24 00:58 | 31.21520 | 29.93600 | 37923 ft | 405 kts | 316° |
| 2026-04-24 00:59 | 31.23920 | 29.91839 | 37918 ft | 411 kts | 324° |
| 2026-04-24 00:59 | 31.28966 | 29.88715 | 37927 ft | 410 kts | 324° |
| 2026-04-24 01:00 | 31.33998 | 29.85571 | 37924 ft | 410 kts | 324° |
| 2026-04-24 01:00 | 31.39034 | 29.82407 | 37929 ft | 411 kts | 324° |
| 2026-04-24 01:01 | 31.44073 | 29.79244 | 37934 ft | 411 kts | 324° |
| 2026-04-24 01:01 | 31.48264 | 29.76614 | 37940 ft | 412 kts | 324° |
| 2026-04-24 01:02 | 31.53316 | 29.73454 | 37943 ft | 412 kts | 324° |
| 2026-04-24 01:02 | 31.59194 | 29.69758 | 37946 ft | 412 kts | 324° |
| 2026-04-24 01:03 | 31.64251 | 29.66567 | 37946 ft | 413 kts | 324° |
| 2026-04-24 01:03 | 31.68494 | 29.63891 | 37948 ft | 413 kts | 324° |
| 2026-04-24 01:04 | 31.73522 | 29.60708 | 37951 ft | 413 kts | 324° |
| 2026-04-24 01:04 | 31.78590 | 29.57501 | 37951 ft | 414 kts | 324° |
| 2026-04-24 01:05 | 31.83664 | 29.54291 | 37943 ft | 414 kts | 324° |
| 2026-04-24 01:05 | 31.88746 | 29.51071 | 37947 ft | 415 kts | 324° |
| 2026-04-24 01:06 | 31.93826 | 29.47844 | 37954 ft | 415 kts | 324° |
| 2026-04-24 01:06 | 31.98908 | 29.44606 | 37952 ft | 416 kts | 324° |
| 2026-04-24 01:07 | 32.04006 | 29.41368 | 37952 ft | 416 kts | 324° |
| 2026-04-24 01:07 | 32.09110 | 29.38125 | 37954 ft | 417 kts | 324° |
| 2026-04-24 01:08 | 32.14219 | 29.34869 | 37951 ft | 417 kts | 324° |
| 2026-04-24 01:08 | 32.19327 | 29.31603 | 37951 ft | 417 kts | 324° |
| 2026-04-24 01:09 | 32.24438 | 29.28332 | 37951 ft | 418 kts | 324° |
| 2026-04-24 01:09 | 32.29518 | 29.25078 | 37953 ft | 418 kts | 324° |
| 2026-04-24 01:10 | 32.34639 | 29.21795 | 37959 ft | 418 kts | 324° |
| 2026-04-24 01:10 | 32.39757 | 29.18507 | 37957 ft | 419 kts | 324° |
| 2026-04-24 01:11 | 32.44870 | 29.15208 | 37956 ft | 419 kts | 324° |
| 2026-04-24 01:11 | 32.49992 | 29.11908 | 37957 ft | 419 kts | 324° |
| 2026-04-24 01:12 | 32.55115 | 29.08606 | 37961 ft | 419 kts | 324° |
| 2026-04-24 01:12 | 32.60234 | 29.05296 | 37960 ft | 419 kts | 324° |
| 2026-04-24 01:13 | 32.65355 | 29.01981 | 37957 ft | 419 kts | 324° |
| 2026-04-24 01:13 | 32.70438 | 28.98695 | 37962 ft | 419 kts | 324° |
| 2026-04-24 01:14 | 32.75565 | 28.95382 | 37970 ft | 419 kts | 324° |
| 2026-04-24 01:14 | 32.80683 | 28.92064 | 37958 ft | 419 kts | 324° |
| 2026-04-24 01:15 | 32.85802 | 28.88732 | 37955 ft | 419 kts | 324° |
| 2026-04-24 01:15 | 32.90912 | 28.85397 | 37956 ft | 419 kts | 324° |
| 2026-04-24 01:16 | 32.96028 | 28.82066 | 37960 ft | 419 kts | 324° |
| 2026-04-24 01:16 | 33.01142 | 28.78725 | 37959 ft | 419 kts | 324° |
| 2026-04-24 01:17 | 33.06214 | 28.75398 | 37961 ft | 419 kts | 324° |
| 2026-04-24 01:17 | 33.11322 | 28.72047 | 37961 ft | 419 kts | 324° |
| 2026-04-24 01:18 | 33.16432 | 28.68704 | 37960 ft | 419 kts | 324° |
| 2026-04-24 01:18 | 33.21539 | 28.65363 | 37964 ft | 419 kts | 324° |
| 2026-04-24 01:19 | 33.26645 | 28.62006 | 37968 ft | 419 kts | 324° |
| 2026-04-24 01:19 | 33.31747 | 28.58645 | 37964 ft | 419 kts | 324° |
| 2026-04-24 01:20 | 33.36858 | 28.55285 | 37964 ft | 419 kts | 324° |
| 2026-04-24 01:20 | 33.41958 | 28.51913 | 37961 ft | 419 kts | 324° |
| 2026-04-24 01:21 | 33.47070 | 28.48533 | 37959 ft | 420 kts | 324° |
| 2026-04-24 01:21 | 33.52183 | 28.45148 | 37960 ft | 420 kts | 324° |
| 2026-04-24 01:22 | 33.57268 | 28.41777 | 37959 ft | 420 kts | 324° |
| 2026-04-24 01:22 | 33.62390 | 28.38383 | 37962 ft | 421 kts | 325° |
| 2026-04-24 01:23 | 33.67513 | 28.34984 | 37969 ft | 421 kts | 325° |
| 2026-04-24 01:23 | 33.72627 | 28.31574 | 37975 ft | 420 kts | 325° |
| 2026-04-24 01:24 | 33.77741 | 28.28166 | 37974 ft | 420 kts | 325° |
| 2026-04-24 01:24 | 33.82838 | 28.24757 | 37976 ft | 419 kts | 324° |
| 2026-04-24 01:25 | 33.87921 | 28.21326 | 37979 ft | 418 kts | 324° |
| 2026-04-24 01:25 | 33.92983 | 28.17899 | 37978 ft | 417 kts | 324° |
| 2026-04-24 01:26 | 33.98006 | 28.14508 | 37978 ft | 416 kts | 324° |
| 2026-04-24 01:26 | 34.03051 | 28.11089 | 37973 ft | 415 kts | 324° |
| 2026-04-24 01:27 | 34.08081 | 28.07675 | 37986 ft | 415 kts | 324° |
| 2026-04-24 01:27 | 34.13103 | 28.04261 | 37987 ft | 414 kts | 324° |
| 2026-04-24 01:28 | 34.18122 | 28.00849 | 37985 ft | 413 kts | 324° |
| 2026-04-24 01:28 | 34.23132 | 27.97442 | 37986 ft | 413 kts | 324° |
| 2026-04-24 01:29 | 34.28129 | 27.94035 | 37984 ft | 412 kts | 324° |
| 2026-04-24 01:29 | 34.33117 | 27.90621 | 37984 ft | 411 kts | 324° |
| 2026-04-24 01:30 | 34.38098 | 27.87215 | 37984 ft | 411 kts | 324° |
| 2026-04-24 01:30 | 34.43039 | 27.83832 | 37988 ft | 410 kts | 324° |
| 2026-04-24 01:31 | 34.48038 | 27.80404 | 37985 ft | 410 kts | 323° |
| 2026-04-24 01:31 | 34.52964 | 27.77016 | 37983 ft | 410 kts | 323° |
| 2026-04-24 01:32 | 34.57918 | 27.73598 | 37985 ft | 409 kts | 323° |
| 2026-04-24 01:32 | 34.62859 | 27.70184 | 37983 ft | 409 kts | 323° |
| 2026-04-24 01:33 | 34.67803 | 27.66754 | 37981 ft | 409 kts | 323° |
| 2026-04-24 01:33 | 34.72739 | 27.63336 | 37984 ft | 409 kts | 323° |
| 2026-04-24 01:34 | 34.77685 | 27.59913 | 37982 ft | 408 kts | 323° |
| 2026-04-24 01:34 | 34.82617 | 27.56483 | 37984 ft | 408 kts | 323° |
| 2026-04-24 01:35 | 34.87543 | 27.53047 | 37979 ft | 408 kts | 323° |
| 2026-04-24 01:35 | 34.92474 | 27.49612 | 37986 ft | 408 kts | 323° |
| 2026-04-24 01:36 | 34.97400 | 27.46174 | 37985 ft | 408 kts | 323° |
| 2026-04-24 01:36 | 35.02297 | 27.42754 | 37980 ft | 408 kts | 323° |
| 2026-04-24 01:37 | 35.07221 | 27.39300 | 37974 ft | 408 kts | 323° |
| 2026-04-24 01:37 | 35.12141 | 27.35849 | 37975 ft | 408 kts | 322° |
| 2026-04-24 01:38 | 35.17070 | 27.32388 | 37977 ft | 408 kts | 322° |
| 2026-04-24 01:38 | 35.21995 | 27.28925 | 37975 ft | 408 kts | 323° |
| 2026-04-24 01:39 | 35.26926 | 27.25462 | 37973 ft | 408 kts | 323° |
| 2026-04-24 01:39 | 35.31847 | 27.21999 | 37977 ft | 408 kts | 322° |
| 2026-04-24 01:40 | 35.36769 | 27.18521 | 37975 ft | 408 kts | 322° |
| 2026-04-24 01:40 | 35.41683 | 27.15041 | 37974 ft | 408 kts | 324° |
| 2026-04-24 01:41 | 35.46834 | 27.12064 | 37975 ft | 413 kts | 328° |
| 2026-04-24 01:41 | 35.52060 | 27.09133 | 37978 ft | 413 kts | 328° |
| 2026-04-24 01:42 | 35.57280 | 27.06200 | 37974 ft | 412 kts | 327° |
| 2026-04-24 01:42 | 35.62495 | 27.03262 | 37979 ft | 412 kts | 327° |
| 2026-04-24 01:43 | 35.67709 | 27.00315 | 37981 ft | 412 kts | 327° |
| 2026-04-24 01:43 | 35.72916 | 26.97360 | 37985 ft | 412 kts | 327° |
| 2026-04-24 01:44 | 35.78122 | 26.94409 | 37985 ft | 412 kts | 327° |
| 2026-04-24 01:44 | 35.83332 | 26.91458 | 37984 ft | 412 kts | 327° |
| 2026-04-24 01:45 | 35.88542 | 26.88506 | 37987 ft | 412 kts | 327° |
| 2026-04-24 01:45 | 35.93719 | 26.85549 | 37990 ft | 412 kts | 327° |
| 2026-04-24 01:46 | 35.98916 | 26.82565 | 37993 ft | 412 kts | 327° |
| 2026-04-24 01:46 | 36.04125 | 26.79568 | 37985 ft | 413 kts | 327° |
| 2026-04-24 01:47 | 36.09333 | 26.76566 | 37991 ft | 413 kts | 327° |
| 2026-04-24 01:47 | 36.14548 | 26.73573 | 37984 ft | 414 kts | 327° |
| 2026-04-24 01:48 | 36.19770 | 26.70564 | 37982 ft | 414 kts | 327° |
| 2026-04-24 01:48 | 36.24997 | 26.67548 | 37983 ft | 415 kts | 327° |
| 2026-04-24 01:49 | 36.30233 | 26.64526 | 37981 ft | 415 kts | 327° |
| 2026-04-24 01:49 | 36.35468 | 26.61492 | 37979 ft | 416 kts | 328° |
| 2026-04-24 01:50 | 36.40718 | 26.58451 | 37984 ft | 416 kts | 328° |
| 2026-04-24 01:50 | 36.45966 | 26.55403 | 37987 ft | 416 kts | 328° |
| 2026-04-24 01:51 | 36.51207 | 26.52341 | 37989 ft | 417 kts | 328° |
| 2026-04-24 01:51 | 36.56420 | 26.49292 | 37991 ft | 417 kts | 328° |
| 2026-04-24 01:52 | 36.61681 | 26.46222 | 37993 ft | 417 kts | 328° |
| 2026-04-24 01:52 | 36.66932 | 26.43153 | 37994 ft | 417 kts | 328° |
| 2026-04-24 01:53 | 36.72187 | 26.40074 | 37993 ft | 417 kts | 328° |
| 2026-04-24 01:53 | 36.77437 | 26.36989 | 37994 ft | 417 kts | 328° |
| 2026-04-24 01:54 | 36.82697 | 26.33899 | 37999 ft | 418 kts | 328° |
| 2026-04-24 01:54 | 36.87954 | 26.30807 | 37996 ft | 418 kts | 328° |
| 2026-04-24 01:55 | 36.93211 | 26.27700 | 37997 ft | 418 kts | 328° |
| 2026-04-24 01:55 | 36.98477 | 26.24588 | 37998 ft | 419 kts | 328° |
| 2026-04-24 01:56 | 37.03720 | 26.21428 | 37996 ft | 418 kts | 327° |
| 2026-04-24 01:56 | 37.08947 | 26.18214 | 38001 ft | 419 kts | 327° |
| 2026-04-24 01:57 | 37.14145 | 26.15020 | 37997 ft | 419 kts | 328° |
| 2026-04-24 01:57 | 37.19394 | 26.11807 | 37997 ft | 420 kts | 328° |
| 2026-04-24 01:58 | 37.24654 | 26.08594 | 37993 ft | 421 kts | 328° |
| 2026-04-24 01:58 | 37.29031 | 26.05907 | 37995 ft | 421 kts | 328° |
| 2026-04-24 01:59 | 37.34299 | 26.02663 | 38000 ft | 422 kts | 328° |
| 2026-04-24 01:59 | 37.39574 | 25.99402 | 38004 ft | 423 kts | 328° |
| 2026-04-24 02:00 | 37.44858 | 25.96153 | 38002 ft | 423 kts | 328° |
| 2026-04-24 02:00 | 37.50157 | 25.92890 | 38006 ft | 424 kts | 328° |
| 2026-04-24 02:01 | 37.55454 | 25.89613 | 38009 ft | 424 kts | 328° |
| 2026-04-24 02:01 | 37.60744 | 25.86328 | 38012 ft | 424 kts | 328° |
| 2026-04-24 02:02 | 37.66042 | 25.83038 | 38012 ft | 424 kts | 328° |
| 2026-04-24 02:02 | 37.71341 | 25.79741 | 38016 ft | 424 kts | 328° |
| 2026-04-24 02:03 | 37.79287 | 25.74792 | 38020 ft | 424 kts | 329° |
| 2026-04-24 02:03 | 37.84579 | 25.71487 | 38015 ft | 425 kts | 329° |
| 2026-04-24 02:04 | 37.89878 | 25.68177 | 38017 ft | 425 kts | 329° |
| 2026-04-24 02:04 | 37.95187 | 25.64853 | 38005 ft | 426 kts | 329° |
| 2026-04-24 02:05 | 38.00497 | 25.61518 | 38007 ft | 426 kts | 329° |
| 2026-04-24 02:05 | 38.05817 | 25.58165 | 38016 ft | 427 kts | 329° |
| 2026-04-24 02:06 | 38.11142 | 25.54811 | 38019 ft | 428 kts | 330° |
| 2026-04-24 02:06 | 38.16444 | 25.51470 | 38023 ft | 428 kts | 330° |
| 2026-04-24 02:07 | 38.21781 | 25.48098 | 38028 ft | 429 kts | 330° |
| 2026-04-24 02:07 | 38.27123 | 25.44720 | 38031 ft | 429 kts | 330° |
| 2026-04-24 02:08 | 38.32477 | 25.41331 | 38030 ft | 429 kts | 330° |
| 2026-04-24 02:08 | 38.37822 | 25.37943 | 38032 ft | 430 kts | 330° |
| 2026-04-24 02:09 | 38.43174 | 25.34544 | 38037 ft | 430 kts | 330° |
| 2026-04-24 02:09 | 38.48533 | 25.31130 | 38035 ft | 430 kts | 330° |
| 2026-04-24 02:10 | 38.53884 | 25.27713 | 38038 ft | 430 kts | 330° |
| 2026-04-24 02:10 | 38.59233 | 25.24284 | 38038 ft | 430 kts | 330° |
| 2026-04-24 02:11 | 38.64588 | 25.20852 | 38038 ft | 431 kts | 331° |
| 2026-04-24 02:11 | 38.69914 | 25.17447 | 38040 ft | 431 kts | 331° |
| 2026-04-24 02:12 | 38.75279 | 25.14013 | 38050 ft | 431 kts | 331° |
| 2026-04-24 02:12 | 38.80634 | 25.10563 | 38047 ft | 431 kts | 331° |
| 2026-04-24 02:13 | 38.85997 | 25.07107 | 38044 ft | 431 kts | 331° |
| 2026-04-24 02:13 | 38.91359 | 25.03645 | 38044 ft | 431 kts | 332° |
| 2026-04-24 02:14 | 38.96724 | 25.00178 | 38048 ft | 431 kts | 332° |
| 2026-04-24 02:14 | 39.02083 | 24.96708 | 38048 ft | 432 kts | 332° |
| 2026-04-24 02:15 | 39.07443 | 24.93224 | 38052 ft | 432 kts | 332° |
| 2026-04-24 02:15 | 39.12819 | 24.89754 | 38054 ft | 432 kts | 333° |
| 2026-04-24 02:16 | 39.18232 | 24.86410 | 38051 ft | 432 kts | 334° |
| 2026-04-24 02:16 | 39.23665 | 24.83089 | 38053 ft | 432 kts | 334° |
| 2026-04-24 02:17 | 39.29049 | 24.79759 | 38061 ft | 432 kts | 333° |
| 2026-04-24 02:17 | 39.34459 | 24.76384 | 38056 ft | 432 kts | 334° |
| 2026-04-24 02:18 | 39.39859 | 24.73010 | 38058 ft | 431 kts | 334° |
| 2026-04-24 02:18 | 39.45266 | 24.69629 | 38064 ft | 431 kts | 334° |
| 2026-04-24 02:19 | 39.50671 | 24.66253 | 38056 ft | 431 kts | 334° |
| 2026-04-24 02:19 | 39.56063 | 24.62871 | 38057 ft | 431 kts | 334° |
| 2026-04-24 02:20 | 39.61458 | 24.59486 | 38056 ft | 431 kts | 334° |
| 2026-04-24 02:20 | 39.66854 | 24.56098 | 38067 ft | 431 kts | 334° |
| 2026-04-24 02:21 | 39.72242 | 24.52705 | 38064 ft | 430 kts | 334° |
| 2026-04-24 02:21 | 39.77626 | 24.49299 | 38058 ft | 430 kts | 335° |
| 2026-04-24 02:22 | 39.82975 | 24.45920 | 38056 ft | 430 kts | 335° |
| 2026-04-24 02:22 | 39.88349 | 24.42519 | 38063 ft | 429 kts | 335° |
| 2026-04-24 02:23 | 39.93711 | 24.39119 | 38065 ft | 429 kts | 335° |
| 2026-04-24 02:23 | 39.99069 | 24.35704 | 38057 ft | 428 kts | 335° |
| 2026-04-24 02:24 | 40.04420 | 24.32290 | 38065 ft | 428 kts | 335° |
| 2026-04-24 02:24 | 40.09761 | 24.28887 | 38059 ft | 427 kts | 335° |
| 2026-04-24 02:25 | 40.15096 | 24.25487 | 38058 ft | 426 kts | 335° |
| 2026-04-24 02:25 | 40.20424 | 24.22082 | 38056 ft | 426 kts | 335° |
| 2026-04-24 02:26 | 40.25737 | 24.18668 | 38056 ft | 425 kts | 335° |
| 2026-04-24 02:26 | 40.31049 | 24.15253 | 38054 ft | 425 kts | 335° |
| 2026-04-24 02:27 | 40.36327 | 24.11859 | 38055 ft | 425 kts | 335° |
| 2026-04-24 02:27 | 40.41629 | 24.08447 | 38053 ft | 425 kts | 335° |
| 2026-04-24 02:28 | 40.46932 | 24.05019 | 38046 ft | 425 kts | 335° |
| 2026-04-24 02:28 | 40.52240 | 24.01577 | 38042 ft | 425 kts | 335° |
| 2026-04-24 02:29 | 40.57550 | 23.98142 | 38039 ft | 426 kts | 335° |
| 2026-04-24 02:29 | 40.62882 | 23.94714 | 38033 ft | 427 kts | 336° |
| 2026-04-24 02:30 | 40.68253 | 23.91351 | 38024 ft | 428 kts | 336° |
| 2026-04-24 02:30 | 40.73635 | 23.87993 | 38037 ft | 429 kts | 336° |
| 2026-04-24 02:31 | 40.79028 | 23.84606 | 38035 ft | 429 kts | 336° |
| 2026-04-24 02:31 | 40.84412 | 23.81210 | 38047 ft | 429 kts | 336° |
| 2026-04-24 02:32 | 40.89799 | 23.77806 | 38051 ft | 429 kts | 336° |
| 2026-04-24 02:32 | 40.95181 | 23.74394 | 38057 ft | 428 kts | 336° |
| 2026-04-24 02:33 | 41.00517 | 23.71002 | 38068 ft | 428 kts | 336° |
| 2026-04-24 02:33 | 41.05877 | 23.67580 | 38075 ft | 427 kts | 336° |
| 2026-04-24 02:34 | 41.11216 | 23.64178 | 38075 ft | 426 kts | 336° |
| 2026-04-24 02:34 | 41.16547 | 23.60772 | 38078 ft | 424 kts | 336° |
| 2026-04-24 02:35 | 41.21860 | 23.57378 | 38077 ft | 423 kts | 336° |
| 2026-04-24 02:35 | 41.27154 | 23.53997 | 38076 ft | 422 kts | 336° |
| 2026-04-24 02:36 | 41.32433 | 23.50607 | 38072 ft | 421 kts | 336° |
| 2026-04-24 02:36 | 41.37657 | 23.47239 | 38073 ft | 420 kts | 336° |
| 2026-04-24 02:37 | 41.42907 | 23.43842 | 38076 ft | 419 kts | 336° |
| 2026-04-24 02:37 | 41.48137 | 23.40433 | 38068 ft | 418 kts | 336° |
| 2026-04-24 02:38 | 41.53356 | 23.37026 | 38068 ft | 417 kts | 336° |
| 2026-04-24 02:38 | 41.58577 | 23.33620 | 38067 ft | 417 kts | 336° |
| 2026-04-24 02:39 | 41.63788 | 23.30213 | 38066 ft | 417 kts | 336° |
| 2026-04-24 02:39 | 41.68990 | 23.26800 | 38064 ft | 416 kts | 336° |
| 2026-04-24 02:40 | 41.74192 | 23.23383 | 38062 ft | 416 kts | 336° |
| 2026-04-24 02:40 | 41.79388 | 23.19955 | 38056 ft | 416 kts | 336° |
| 2026-04-24 02:41 | 41.84554 | 23.16541 | 38054 ft | 417 kts | 336° |
| 2026-04-24 02:41 | 41.89755 | 23.13105 | 38055 ft | 417 kts | 336° |
| 2026-04-24 02:42 | 41.94956 | 23.09667 | 38058 ft | 417 kts | 336° |
| 2026-04-24 02:42 | 42.00161 | 23.06216 | 38057 ft | 417 kts | 336° |
| 2026-04-24 02:43 | 42.05367 | 23.02757 | 38060 ft | 417 kts | 336° |
| 2026-04-24 02:43 | 42.10569 | 22.99294 | 38069 ft | 417 kts | 336° |
| 2026-04-24 02:44 | 42.15771 | 22.95830 | 38073 ft | 417 kts | 336° |
| 2026-04-24 02:44 | 42.20966 | 22.92360 | 38072 ft | 417 kts | 336° |
| 2026-04-24 02:45 | 42.26157 | 22.88884 | 38072 ft | 416 kts | 336° |
| 2026-04-24 02:45 | 42.31342 | 22.85403 | 38076 ft | 416 kts | 335° |
| 2026-04-24 02:46 | 42.36513 | 22.81927 | 38080 ft | 415 kts | 335° |
| 2026-04-24 02:46 | 42.41691 | 22.78450 | 38084 ft | 415 kts | 336° |
| 2026-04-24 02:47 | 42.46858 | 22.74972 | 38088 ft | 414 kts | 336° |
| 2026-04-24 02:47 | 42.51980 | 22.71509 | 38089 ft | 414 kts | 335° |
| 2026-04-24 02:48 | 42.57126 | 22.68022 | 38084 ft | 413 kts | 336° |
| 2026-04-24 02:48 | 42.62267 | 22.64535 | 38089 ft | 413 kts | 336° |
| 2026-04-24 02:49 | 42.67401 | 22.61053 | 38083 ft | 412 kts | 336° |
| 2026-04-24 02:49 | 42.72530 | 22.57569 | 38083 ft | 412 kts | 336° |
| 2026-04-24 02:50 | 42.77653 | 22.54075 | 38079 ft | 412 kts | 336° |
| 2026-04-24 02:50 | 42.82768 | 22.50584 | 38074 ft | 411 kts | 335° |
| 2026-04-24 02:51 | 42.87888 | 22.47089 | 38080 ft | 411 kts | 336° |
| 2026-04-24 02:51 | 42.92144 | 22.44199 | 38068 ft | 411 kts | 336° |
| 2026-04-24 02:52 | 42.97260 | 22.40719 | 38068 ft | 411 kts | 336° |
| 2026-04-24 02:52 | 43.02369 | 22.37224 | 38070 ft | 411 kts | 336° |
| 2026-04-24 02:53 | 43.07478 | 22.33725 | 38055 ft | 411 kts | 336° |
| 2026-04-24 02:53 | 43.12592 | 22.30231 | 38058 ft | 411 kts | 336° |
| 2026-04-24 02:54 | 43.17698 | 22.26735 | 38052 ft | 411 kts | 336° |
| 2026-04-24 02:54 | 43.22804 | 22.23223 | 38061 ft | 411 kts | 336° |
| 2026-04-24 02:55 | 43.27917 | 22.19704 | 38060 ft | 410 kts | 336° |
| 2026-04-24 02:55 | 43.33017 | 22.16191 | 38056 ft | 410 kts | 336° |
| 2026-04-24 02:56 | 43.38116 | 22.12666 | 38073 ft | 410 kts | 336° |
| 2026-04-24 02:56 | 43.43172 | 22.09160 | 38064 ft | 410 kts | 336° |
| 2026-04-24 02:57 | 43.48254 | 22.05628 | 38067 ft | 409 kts | 336° |
| 2026-04-24 02:57 | 43.53337 | 22.02100 | 38069 ft | 408 kts | 336° |
| 2026-04-24 02:58 | 43.58405 | 21.98571 | 38062 ft | 408 kts | 336° |
| 2026-04-24 02:58 | 43.63473 | 21.95034 | 38063 ft | 408 kts | 336° |
| 2026-04-24 02:59 | 43.68520 | 21.91503 | 38061 ft | 407 kts | 336° |
| 2026-04-24 02:59 | 43.73564 | 21.87964 | 38062 ft | 406 kts | 336° |
| 2026-04-24 03:00 | 43.78601 | 21.84430 | 38064 ft | 405 kts | 336° |
| 2026-04-24 03:00 | 43.83627 | 21.80906 | 38061 ft | 404 kts | 336° |
| 2026-04-24 03:01 | 43.88605 | 21.77401 | 38061 ft | 404 kts | 336° |
| 2026-04-24 03:01 | 43.93610 | 21.73860 | 38064 ft | 403 kts | 336° |
| 2026-04-24 03:02 | 43.98609 | 21.70323 | 38061 ft | 403 kts | 336° |
| 2026-04-24 03:02 | 44.03598 | 21.66795 | 38065 ft | 402 kts | 336° |
| 2026-04-24 03:03 | 44.08582 | 21.63259 | 38067 ft | 402 kts | 336° |
| 2026-04-24 03:03 | 44.13557 | 21.59719 | 38065 ft | 401 kts | 336° |
| 2026-04-24 03:04 | 44.18523 | 21.56176 | 38067 ft | 401 kts | 336° |
| 2026-04-24 03:04 | 44.23491 | 21.52632 | 38060 ft | 400 kts | 336° |
| 2026-04-24 03:05 | 44.28447 | 21.49083 | 38062 ft | 400 kts | 336° |
| 2026-04-24 03:05 | 44.33398 | 21.45542 | 38070 ft | 400 kts | 336° |
| 2026-04-24 03:06 | 44.38349 | 21.41989 | 38063 ft | 400 kts | 336° |
| 2026-04-24 03:06 | 44.43261 | 21.38443 | 38062 ft | 400 kts | 336° |
| 2026-04-24 03:07 | 44.48201 | 21.34879 | 38054 ft | 399 kts | 336° |
| 2026-04-24 03:07 | 44.53138 | 21.31318 | 38056 ft | 399 kts | 336° |
| 2026-04-24 03:08 | 44.60551 | 21.25964 | 38050 ft | 399 kts | 336° |
| 2026-04-24 03:09 | 44.65481 | 21.22382 | 38048 ft | 399 kts | 336° |
| 2026-04-24 03:09 | 44.70402 | 21.18798 | 38047 ft | 398 kts | 336° |
| 2026-04-24 03:10 | 44.75324 | 21.15213 | 38038 ft | 398 kts | 336° |
| 2026-04-24 03:10 | 44.80242 | 21.11628 | 38043 ft | 398 kts | 336° |
| 2026-04-24 03:11 | 44.85161 | 21.08027 | 38039 ft | 398 kts | 336° |
| 2026-04-24 03:11 | 44.90075 | 21.04424 | 38036 ft | 398 kts | 336° |
| 2026-04-24 03:12 | 44.94989 | 21.00816 | 38031 ft | 398 kts | 336° |
| 2026-04-24 03:12 | 44.99871 | 20.97231 | 38034 ft | 398 kts | 336° |
| 2026-04-24 03:13 | 45.04784 | 20.93613 | 38034 ft | 398 kts | 336° |
| 2026-04-24 03:13 | 45.09690 | 20.89992 | 38034 ft | 398 kts | 336° |
| 2026-04-24 03:14 | 45.14595 | 20.86361 | 38038 ft | 397 kts | 336° |
| 2026-04-24 03:14 | 45.19496 | 20.82730 | 38037 ft | 397 kts | 336° |
| 2026-04-24 03:15 | 45.24394 | 20.79098 | 38041 ft | 398 kts | 336° |
| 2026-04-24 03:15 | 45.29297 | 20.75453 | 38040 ft | 398 kts | 336° |
| 2026-04-24 03:16 | 45.34203 | 20.71797 | 38041 ft | 398 kts | 336° |
| 2026-04-24 03:16 | 45.39110 | 20.68126 | 38043 ft | 398 kts | 336° |
| 2026-04-24 03:17 | 45.44007 | 20.64453 | 38042 ft | 398 kts | 336° |
| 2026-04-24 03:17 | 45.48876 | 20.60797 | 38043 ft | 398 kts | 336° |
| 2026-04-24 03:18 | 45.53787 | 20.57109 | 38047 ft | 399 kts | 336° |
| 2026-04-24 03:18 | 45.58690 | 20.53429 | 38045 ft | 398 kts | 336° |
| 2026-04-24 03:19 | 45.63591 | 20.49727 | 38042 ft | 399 kts | 336° |
| 2026-04-24 03:19 | 45.68491 | 20.46016 | 38045 ft | 398 kts | 336° |
| 2026-04-24 03:20 | 45.73390 | 20.42307 | 38046 ft | 398 kts | 336° |
| 2026-04-24 03:20 | 45.78285 | 20.38590 | 38045 ft | 398 kts | 336° |
| 2026-04-24 03:21 | 45.83176 | 20.34875 | 38043 ft | 398 kts | 336° |
| 2026-04-24 03:21 | 45.88061 | 20.31147 | 38043 ft | 398 kts | 336° |
| 2026-04-24 03:22 | 45.92949 | 20.27414 | 38043 ft | 397 kts | 336° |
| 2026-04-24 03:22 | 45.97796 | 20.23712 | 38049 ft | 397 kts | 336° |
| 2026-04-24 03:23 | 46.02670 | 20.19973 | 38047 ft | 397 kts | 336° |
| 2026-04-24 03:23 | 46.07533 | 20.16231 | 38042 ft | 396 kts | 336° |
| 2026-04-24 03:24 | 46.12391 | 20.12492 | 38039 ft | 396 kts | 336° |
| 2026-04-24 03:24 | 46.17248 | 20.08741 | 38041 ft | 396 kts | 335° |
| 2026-04-24 03:25 | 46.22074 | 20.04908 | 38041 ft | 396 kts | 335° |
| 2026-04-24 03:25 | 46.26886 | 20.01019 | 38038 ft | 396 kts | 335° |
| 2026-04-24 03:26 | 46.31690 | 19.97135 | 38041 ft | 396 kts | 335° |
| 2026-04-24 03:26 | 46.36513 | 19.93249 | 38040 ft | 396 kts | 335° |
| 2026-04-24 03:27 | 46.41330 | 19.89361 | 38045 ft | 396 kts | 335° |
| 2026-04-24 03:27 | 46.46144 | 19.85474 | 38047 ft | 396 kts | 335° |
| 2026-04-24 03:28 | 46.50961 | 19.81575 | 38047 ft | 396 kts | 335° |
| 2026-04-24 03:28 | 46.55766 | 19.77674 | 38052 ft | 396 kts | 335° |
| 2026-04-24 03:29 | 46.60579 | 19.73755 | 38052 ft | 396 kts | 335° |
| 2026-04-24 03:29 | 46.65357 | 19.69860 | 38055 ft | 396 kts | 335° |
| 2026-04-24 03:30 | 46.70193 | 19.65919 | 38062 ft | 396 kts | 335° |
| 2026-04-24 03:30 | 46.74961 | 19.62021 | 38060 ft | 396 kts | 335° |
| 2026-04-24 03:31 | 46.79750 | 19.58089 | 38061 ft | 395 kts | 335° |
| 2026-04-24 03:31 | 46.84548 | 19.54148 | 38060 ft | 395 kts | 335° |
| 2026-04-24 03:32 | 46.89332 | 19.50190 | 38063 ft | 395 kts | 335° |
| 2026-04-24 03:32 | 46.94123 | 19.46233 | 38064 ft | 395 kts | 335° |
| 2026-04-24 03:33 | 46.98907 | 19.42280 | 38058 ft | 395 kts | 335° |
| 2026-04-24 03:33 | 47.03680 | 19.38319 | 38056 ft | 394 kts | 335° |
| 2026-04-24 03:34 | 47.08453 | 19.34357 | 38063 ft | 394 kts | 335° |
| 2026-04-24 03:34 | 47.13219 | 19.30387 | 38053 ft | 394 kts | 335° |
| 2026-04-24 03:35 | 47.17946 | 19.26445 | 38045 ft | 393 kts | 335° |
| 2026-04-24 03:35 | 47.22702 | 19.22477 | 37959 ft | 398 kts | 335° |
| 2026-04-24 03:35 | 47.25139 | 19.20449 | 37678 ft | 405 kts | 335° |
| 2026-04-24 03:36 | 47.27598 | 19.18394 | 37403 ft | 405 kts | 335° |
| 2026-04-24 03:36 | 47.30025 | 19.16350 | 37052 ft | 399 kts | 335° |
| 2026-04-24 03:36 | 47.32297 | 19.13981 | 36542 ft | 402 kts | 325° |
| 2026-04-24 03:36 | 47.34244 | 19.10991 | 36023 ft | 408 kts | 315° |
| 2026-04-24 03:37 | 47.35804 | 19.07463 | 35470 ft | 415 kts | 304° |
| 2026-04-24 03:37 | 47.37037 | 19.03606 | 34911 ft | 416 kts | 302° |
| 2026-04-24 03:37 | 47.38247 | 18.99738 | 34338 ft | 415 kts | 302° |
| 2026-04-24 03:37 | 47.39455 | 18.95866 | 33739 ft | 414 kts | 302° |
| 2026-04-24 03:38 | 47.40653 | 18.92016 | 33171 ft | 411 kts | 302° |
| 2026-04-24 03:38 | 47.41843 | 18.88188 | 32618 ft | 409 kts | 302° |
| 2026-04-24 03:38 | 47.43028 | 18.84382 | 32066 ft | 407 kts | 302° |
| 2026-04-24 03:38 | 47.44205 | 18.80601 | 31535 ft | 405 kts | 302° |
| 2026-04-24 03:39 | 47.45377 | 18.76837 | 30995 ft | 403 kts | 301° |
| 2026-04-24 03:39 | 47.46550 | 18.73069 | 30481 ft | 401 kts | 301° |
| 2026-04-24 03:39 | 47.47711 | 18.69331 | 29939 ft | 400 kts | 301° |
| 2026-04-24 03:39 | 47.48865 | 18.65597 | 29424 ft | 397 kts | 301° |
| 2026-04-24 03:40 | 47.50001 | 18.61903 | 28930 ft | 393 kts | 301° |
| 2026-04-24 03:40 | 47.51122 | 18.58253 | 28459 ft | 389 kts | 301° |
| 2026-04-24 03:40 | 47.52237 | 18.54621 | 27989 ft | 386 kts | 301° |
| 2026-04-24 03:40 | 47.53341 | 18.51028 | 27536 ft | 382 kts | 301° |
| 2026-04-24 03:41 | 47.54324 | 18.47367 | 27085 ft | 384 kts | 294° |
| 2026-04-24 03:41 | 47.55132 | 18.43622 | 26613 ft | 381 kts | 294° |
| 2026-04-24 03:41 | 47.55932 | 18.39898 | 26149 ft | 379 kts | 294° |
| 2026-04-24 03:41 | 47.56722 | 18.36186 | 25665 ft | 377 kts | 294° |
| 2026-04-24 03:42 | 47.57507 | 18.32490 | 25179 ft | 376 kts | 294° |
| 2026-04-24 03:42 | 47.58291 | 18.28807 | 24679 ft | 374 kts | 294° |
| 2026-04-24 03:42 | 47.59074 | 18.25133 | 24169 ft | 374 kts | 294° |
| 2026-04-24 03:42 | 47.59589 | 18.22701 | 23833 ft | 374 kts | 294° |
| 2026-04-24 03:43 | 47.60362 | 18.19036 | 23276 ft | 373 kts | 293° |
| 2026-04-24 03:43 | 47.61134 | 18.15371 | 22765 ft | 370 kts | 293° |
| 2026-04-24 03:43 | 47.61899 | 18.11741 | 22279 ft | 368 kts | 294° |
| 2026-04-24 03:43 | 47.62656 | 18.08137 | 21794 ft | 365 kts | 293° |
| 2026-04-24 03:44 | 47.63650 | 18.03397 | 21160 ft | 362 kts | 293° |
| 2026-04-24 03:44 | 47.64152 | 18.00997 | 20845 ft | 361 kts | 293° |
| 2026-04-24 03:44 | 47.64892 | 17.97455 | 20371 ft | 358 kts | 293° |
| 2026-04-24 03:44 | 47.65626 | 17.93933 | 19897 ft | 356 kts | 293° |
| 2026-04-24 03:45 | 47.66357 | 17.90429 | 19430 ft | 355 kts | 293° |
| 2026-04-24 03:45 | 47.67085 | 17.86946 | 19006 ft | 352 kts | 293° |
| 2026-04-24 03:45 | 47.67805 | 17.83493 | 18538 ft | 350 kts | 293° |
| 2026-04-24 03:45 | 47.68508 | 17.80101 | 18092 ft | 348 kts | 293° |
| 2026-04-24 03:46 | 47.69215 | 17.76686 | 17708 ft | 344 kts | 293° |
| 2026-04-24 03:46 | 47.69918 | 17.73291 | 17209 ft | 342 kts | 292° |
| 2026-04-24 03:46 | 47.70610 | 17.69931 | 16696 ft | 339 kts | 292° |
| 2026-04-24 03:46 | 47.71286 | 17.66638 | 16243 ft | 326 kts | 292° |
| 2026-04-24 03:47 | 47.71940 | 17.63439 | 15843 ft | 322 kts | 292° |
| 2026-04-24 03:47 | 47.72593 | 17.60263 | 15430 ft | 322 kts | 292° |
| 2026-04-24 03:47 | 47.73245 | 17.57086 | 15020 ft | 321 kts | 292° |
| 2026-04-24 03:47 | 47.73893 | 17.53922 | 14618 ft | 320 kts | 291° |
| 2026-04-24 03:48 | 47.74561 | 17.50766 | 14215 ft | 318 kts | 295° |
| 2026-04-24 03:48 | 47.75568 | 17.47879 | 13751 ft | 314 kts | 306° |
| 2026-04-24 03:48 | 47.76722 | 17.45119 | 13251 ft | 314 kts | 306° |
| 2026-04-24 03:48 | 47.77873 | 17.42363 | 12793 ft | 313 kts | 306° |
| 2026-04-24 03:49 | 47.79020 | 17.39605 | 12329 ft | 312 kts | 305° |
| 2026-04-24 03:49 | 47.80153 | 17.36876 | 11939 ft | 308 kts | 305° |
| 2026-04-24 03:49 | 47.81276 | 17.34165 | 11467 ft | 307 kts | 305° |
| 2026-04-24 03:49 | 47.82378 | 17.31495 | 10869 ft | 298 kts | 305° |
| 2026-04-24 03:50 | 47.83462 | 17.28868 | 10410 ft | 297 kts | 305° |
| 2026-04-24 03:50 | 47.84528 | 17.26286 | 9969 ft | 296 kts | 305° |
| 2026-04-24 03:50 | 47.85590 | 17.23714 | 9746 ft | 285 kts | 305° |
| 2026-04-24 03:50 | 47.86608 | 17.21244 | 9440 ft | 278 kts | 305° |
| 2026-04-24 03:51 | 47.87614 | 17.18800 | 9019 ft | 273 kts | 305° |
| 2026-04-24 03:51 | 47.88594 | 17.16414 | 8328 ft | 267 kts | 304° |
| 2026-04-24 03:51 | 47.89551 | 17.14083 | 7652 ft | 261 kts | 304° |
| 2026-04-24 03:51 | 47.90481 | 17.11821 | 7428 ft | 255 kts | 304° |
| 2026-04-24 03:52 | 47.91406 | 17.09573 | 7127 ft | 254 kts | 304° |
| 2026-04-24 03:52 | 47.92326 | 17.07335 | 6769 ft | 251 kts | 304° |
| 2026-04-24 03:52 | 47.93235 | 17.05128 | 6405 ft | 248 kts | 304° |
| 2026-04-24 03:52 | 47.94129 | 17.02953 | 6030 ft | 245 kts | 304° |
| 2026-04-24 03:53 | 47.95018 | 17.00786 | 5658 ft | 244 kts | 304° |
| 2026-04-24 03:53 | 47.95897 | 16.98635 | 5307 ft | 243 kts | 304° |
| 2026-04-24 03:53 | 47.96773 | 16.96480 | 4945 ft | 242 kts | 304° |
| 2026-04-24 03:53 | 47.97644 | 16.94340 | 4571 ft | 241 kts | 304° |
| 2026-04-24 03:54 | 47.98504 | 16.92232 | 4361 ft | 229 kts | 304° |
| 2026-04-24 03:54 | 47.99271 | 16.90339 | 4304 ft | 206 kts | 304° |
| 2026-04-24 03:54 | 48.00006 | 16.88527 | 4223 ft | 202 kts | 304° |
| 2026-04-24 03:54 | 48.00733 | 16.86738 | 4144 ft | 201 kts | 304° |
| 2026-04-24 03:55 | 48.01461 | 16.84949 | 4063 ft | 201 kts | 304° |
| 2026-04-24 03:55 | 48.02188 | 16.83162 | 3976 ft | 201 kts | 305° |
| 2026-04-24 03:55 | 48.02913 | 16.81380 | 3885 ft | 199 kts | 305° |
| 2026-04-24 03:55 | 48.03600 | 16.79652 | 3806 ft | 188 kts | 303° |
| 2026-04-24 03:56 | 48.04208 | 16.77944 | 3626 ft | 185 kts | 301° |
| 2026-04-24 03:56 | 48.04785 | 16.76228 | 3400 ft | 184 kts | 301° |
| 2026-04-24 03:56 | 48.05348 | 16.74525 | 3187 ft | 180 kts | 301° |
| 2026-04-24 03:56 | 48.05894 | 16.72865 | 2919 ft | 175 kts | 301° |
| 2026-04-24 03:57 | 48.06425 | 16.71247 | 2675 ft | 170 kts | 301° |
| 2026-04-24 03:57 | 48.06921 | 16.69729 | 2460 ft | 157 kts | 302° |
| 2026-04-24 03:57 | 48.07393 | 16.68293 | 2251 ft | 152 kts | 302° |
| 2026-04-24 03:57 | 48.07852 | 16.66892 | 2050 ft | 145 kts | 301° |
| 2026-04-24 03:58 | 48.08268 | 16.65619 | 1863 ft | 130 kts | 301° |
| 2026-04-24 03:58 | 48.08656 | 16.64436 | 1677 ft | 127 kts | 301° |
| 2026-04-24 03:58 | 48.09038 | 16.63272 | 1498 ft | 124 kts | 300° |
| 2026-04-24 03:58 | 48.09426 | 16.62103 | 1330 ft | 125 kts | 299° |
| 2026-04-24 03:59 | 48.09814 | 16.60933 | 1160 ft | 127 kts | 298° |
| 2026-04-24 03:59 | 48.10197 | 16.59739 | 993 ft | 126 kts | 297° |
| 2026-04-24 03:59 | 48.10574 | 16.58567 | 820 ft | 126 kts | 297° |
| 2026-04-24 03:59 | 48.10962 | 16.57382 | 653 ft | 127 kts | 298° |
| 2026-04-24 04:00 | 48.11316 | 16.56300 | 615 ft | 98 kts | 297° |
| 2026-04-24 04:00 | 48.11532 | 16.55632 | 615 ft | 48 kts | 295° |
| 2026-04-24 04:00 | 48.11675 | 16.55322 | 612 ft | 26 kts | 316° |
| 2026-04-24 04:00 | 48.11781 | 16.55173 | 610 ft | 16 kts | 322° |
| 2026-04-24 04:01 | 48.11879 | 16.55168 | 620 ft | 12 kts | 61° |
| 2026-04-24 04:01 | 48.11854 | 16.55297 | 612 ft | 18 kts | 115° |
| 2026-04-24 04:01 | 48.11791 | 16.55487 | 610 ft | 20 kts | 116° |
| 2026-04-24 04:01 | 48.11733 | 16.55669 | 619 ft | 19 kts | 116° |
| 2026-04-24 04:02 | 48.11680 | 16.55830 | 615 ft | 19 kts | 116° |
| 2026-04-24 04:02 | 48.11618 | 16.56021 | 619 ft | 20 kts | 116° |
| 2026-04-24 04:02 | 48.11601 | 16.56179 | 612 ft | 13 kts | 43° |
| 2026-04-24 04:02 | 48.11682 | 16.56263 | 619 ft | 16 kts | 25° |
| 2026-04-24 04:03 | 48.11756 | 16.56352 | 615 ft | 13 kts | 85° |
| 2026-04-24 04:03 | 48.11723 | 16.56475 | 622 ft | 12 kts | 116° |
| 2026-04-24 04:03 | 48.11706 | 16.56581 | 620 ft | 9 kts | 54° |
| 2026-04-24 04:03 | 48.11750 | 16.56617 | 614 ft | 5 kts | 26° |
| 2026-04-24 04:04 | 48.11764 | 16.56627 | 614 ft | 1 kts | 26° |
| 2026-04-24 04:04 | 48.11765 | 16.56628 | 615 ft | 0 kts | 26° |